createdAt,value
2023-03-11T00:02:21.582Z,22.42
2023-03-11T00:04:49.074Z,22.59
2023-03-11T00:07:24.332Z,22.63
2023-03-11T00:09:55.070Z,22.50
2023-03-11T00:12:26.081Z,22.41
2023-03-11T00:14:54.144Z,22.70
2023-03-11T00:17:21.235Z,22.51
2023-03-11T00:19:48.289Z,22.52
2023-03-11T00:22:15.339Z,22.39
2023-03-11T00:24:44.724Z,22.42
2023-03-11T00:27:11.998Z,22.39
2023-03-11T00:29:41.838Z,22.27
2023-03-11T00:32:09.390Z,22.40
2023-03-11T00:34:39.659Z,22.08
2023-03-11T00:37:06.931Z,22.13
2023-03-11T00:39:34.399Z,21.90
2023-03-11T00:42:01.664Z,22.18
2023-03-11T00:44:28.828Z,21.97
2023-03-11T00:46:57.601Z,22.18
2023-03-11T00:49:24.955Z,22.00
2023-03-11T00:51:52.903Z,22.05
2023-03-11T00:54:20.397Z,22.13
2023-03-11T00:56:50.679Z,21.91
2023-03-11T01:01:47.297Z,21.84
2023-03-11T01:04:14.663Z,21.69
2023-03-11T01:06:45.994Z,21.88
2023-03-11T01:09:13.638Z,22.12
2023-03-11T01:11:41.003Z,21.78
2023-03-11T01:14:08.812Z,21.66
2023-03-11T01:16:38.868Z,21.63
2023-03-11T01:19:06.182Z,21.60
2023-03-11T01:21:33.348Z,21.87
2023-03-11T01:24:00.470Z,21.67
2023-03-11T01:26:27.608Z,21.67
2023-03-11T01:28:57.495Z,21.34
2023-03-11T01:31:25.165Z,21.60
2023-03-11T01:33:52.573Z,21.55
2023-03-11T01:36:19.750Z,21.84
2023-03-11T01:38:46.977Z,21.76
2023-03-11T01:41:14.027Z,21.52
2023-03-11T01:44:05.365Z,21.65
2023-03-11T01:47:00.165Z,21.79
2023-03-11T01:49:35.755Z,21.47
2023-03-11T01:52:08.119Z,21.66
2023-03-11T01:54:42.587Z,21.62
2023-03-11T01:57:16.187Z,21.75
2023-03-11T01:59:58.612Z,21.85
2023-03-11T02:02:34.714Z,21.58
2023-03-11T02:05:04.987Z,21.51
2023-03-11T02:07:32.591Z,21.66
2023-03-11T02:10:07.808Z,21.66
2023-03-11T02:12:36.912Z,21.39
2023-03-11T02:15:07.102Z,21.48
2023-03-11T02:17:37.629Z,21.50
2023-03-11T02:20:39.946Z,21.44
2023-03-11T02:23:14.480Z,21.39
2023-03-11T02:25:51.652Z,21.25
2023-03-11T02:28:20.909Z,21.44
2023-03-11T02:30:48.958Z,21.42
2023-03-11T02:33:19.003Z,21.43
2023-03-11T02:35:47.734Z,21.31
2023-03-11T02:38:14.849Z,21.49
2023-03-11T02:41:02.956Z,21.23
2023-03-11T02:43:40.989Z,21.33
2023-03-11T02:46:11.868Z,21.17
2023-03-11T02:48:39.534Z,21.27
2023-03-11T02:51:06.902Z,21.35
2023-03-11T02:53:42.018Z,21.09
2023-03-11T02:56:09.292Z,21.53
2023-03-11T02:58:36.436Z,21.37
2023-03-11T03:01:03.898Z,21.50
2023-03-11T03:03:31.165Z,21.50
2023-03-11T03:05:58.374Z,21.33
2023-03-11T03:08:25.702Z,21.18
2023-03-11T03:10:53.977Z,21.31
2023-03-11T03:13:21.367Z,21.18
2023-03-11T03:15:48.760Z,21.15
2023-03-11T03:18:16.031Z,21.21
2023-03-11T03:20:43.575Z,21.33
2023-03-11T03:23:10.811Z,21.36
2023-03-11T03:25:38.028Z,21.10
2023-03-11T03:28:09.768Z,20.94
2023-03-11T03:30:39.893Z,21.29
2023-03-11T03:33:08.075Z,21.29
2023-03-11T03:35:35.432Z,20.79
2023-03-11T03:38:07.393Z,21.09
2023-03-11T03:40:34.475Z,21.00
2023-03-11T03:43:05.379Z,21.21
2023-03-11T03:45:34.937Z,21.13
2023-03-11T03:48:02.654Z,21.15
2023-03-11T03:50:36.401Z,21.20
2023-03-11T03:53:03.606Z,21.07
2023-03-11T03:55:31.353Z,21.27
2023-03-11T03:58:02.102Z,20.96
2023-03-11T04:00:37.661Z,20.93
2023-03-11T04:03:05.364Z,21.07
2023-03-11T04:05:43.589Z,21.02
2023-03-11T04:08:14.736Z,21.01
2023-03-11T04:10:44.992Z,21.09
2023-03-11T04:13:14.291Z,21.08
2023-03-11T04:15:48.983Z,21.09
2023-03-11T04:18:16.255Z,21.00
2023-03-11T04:20:49.155Z,21.00
2023-03-11T04:23:23.680Z,20.86
2023-03-11T04:25:51.039Z,20.74
2023-03-11T04:28:22.103Z,20.66
2023-03-11T04:30:51.739Z,20.99
2023-03-11T04:33:21.591Z,21.05
2023-03-11T04:35:52.312Z,20.88
2023-03-11T04:38:20.753Z,20.88
2023-03-11T04:40:48.880Z,20.57
2023-03-11T04:43:16.766Z,20.72
2023-03-11T04:45:45.327Z,20.84
2023-03-11T04:48:13.312Z,20.75
2023-03-11T04:50:41.683Z,20.60
2023-03-11T04:53:11.521Z,20.94
2023-03-11T04:55:41.922Z,20.78
2023-03-11T04:58:09.339Z,20.70
2023-03-11T05:00:38.974Z,20.57
2023-03-11T05:03:12.101Z,20.64
2023-03-11T05:05:39.933Z,20.57
2023-03-11T05:08:08.564Z,20.88
2023-03-11T05:10:36.920Z,20.82
2023-03-11T05:13:06.573Z,20.76
2023-03-11T05:15:37.913Z,20.67
2023-03-11T05:18:06.866Z,20.52
2023-03-11T05:20:37.687Z,20.77
2023-03-11T05:23:05.711Z,20.71
2023-03-11T05:25:35.757Z,20.85
2023-03-11T05:28:03.737Z,20.99
2023-03-11T05:30:32.821Z,20.93
2023-03-11T05:33:00.297Z,20.77
2023-03-11T05:35:30.866Z,20.82
2023-03-11T05:37:58.184Z,20.86
2023-03-11T05:40:28.649Z,21.06
2023-03-11T05:42:56.129Z,20.82
2023-03-11T05:45:25.753Z,20.61
2023-03-11T05:47:54.932Z,20.84
2023-03-11T05:50:22.204Z,20.48
2023-03-11T05:52:50.722Z,20.72
2023-03-11T05:55:18.732Z,20.68
2023-03-11T05:57:46.853Z,20.81
2023-03-11T06:00:14.409Z,20.49
2023-03-11T06:02:43.297Z,20.54
2023-03-11T06:05:14.362Z,20.37
2023-03-11T06:07:43.695Z,20.57
2023-03-11T06:10:11.467Z,20.63
2023-03-11T06:12:39.496Z,20.72
2023-03-11T06:15:30.031Z,20.59
2023-03-11T06:17:59.120Z,20.71
2023-03-11T06:20:26.837Z,20.59
2023-03-11T06:23:03.392Z,20.76
2023-03-11T06:25:30.834Z,20.78
2023-03-11T06:27:58.317Z,20.74
2023-03-11T06:30:26.038Z,20.63
2023-03-11T06:33:03.736Z,20.84
2023-03-11T06:35:34.055Z,20.62
2023-03-11T06:38:04.405Z,20.81
2023-03-11T06:40:34.860Z,20.47
2023-03-11T06:43:04.702Z,20.67
2023-03-11T06:48:20.108Z,20.81
2023-03-11T06:51:07.308Z,20.49
2023-03-11T06:53:44.565Z,20.63
2023-03-11T06:56:14.319Z,20.88
2023-03-11T06:58:59.302Z,20.69
2023-03-11T07:01:35.899Z,21.00
2023-03-11T07:04:15.874Z,21.00
2023-03-11T07:06:44.252Z,20.82
2023-03-11T07:09:25.643Z,20.60
2023-03-11T07:14:45.176Z,20.86
2023-03-11T07:17:18.447Z,20.64
2023-03-11T07:19:56.392Z,20.75
2023-03-11T07:22:31.113Z,20.58
2023-03-11T07:25:02.025Z,20.73
2023-03-11T07:27:30.328Z,20.45
2023-03-11T07:29:57.926Z,20.97
2023-03-11T07:32:30.721Z,20.55
2023-03-11T07:35:04.616Z,20.96
2023-03-11T07:37:55.973Z,21.03
2023-03-11T07:40:25.055Z,20.82
2023-03-11T07:42:59.782Z,20.64
2023-03-11T07:45:46.032Z,20.69
2023-03-11T07:48:27.459Z,20.85
2023-03-11T07:51:22.415Z,20.72
2023-03-11T07:53:52.930Z,20.62
2023-03-11T07:56:23.940Z,20.92
2023-03-11T07:58:54.877Z,20.77
2023-03-11T08:01:41.696Z,20.52
2023-03-11T08:04:17.990Z,20.75
2023-03-11T08:06:49.024Z,20.73
2023-03-11T08:09:16.330Z,20.80
2023-03-11T08:11:49.213Z,20.35
2023-03-11T08:14:16.746Z,20.74
2023-03-11T08:16:44.008Z,20.62
2023-03-11T08:19:14.910Z,20.86
2023-03-11T08:21:45.126Z,20.87
2023-03-11T08:24:13.996Z,20.87
2023-03-11T08:26:41.568Z,20.76
2023-03-11T08:29:08.870Z,20.97
2023-03-11T08:31:36.490Z,21.01
2023-03-11T08:34:13.747Z,21.14
2023-03-11T08:36:51.841Z,21.05
2023-03-11T08:39:25.815Z,21.18
2023-03-11T08:42:00.003Z,21.28
2023-03-11T08:44:34.458Z,21.24
2023-03-11T08:47:11.749Z,21.34
2023-03-11T08:49:42.325Z,21.28
2023-03-11T08:52:20.354Z,21.36
2023-03-11T08:54:55.901Z,21.47
2023-03-11T08:57:31.638Z,21.38
2023-03-11T09:00:01.124Z,21.45
2023-03-11T09:02:39.306Z,21.61
2023-03-11T09:05:16.912Z,21.97
2023-03-11T09:07:55.800Z,22.15
2023-03-11T09:10:29.381Z,22.24
2023-03-11T09:13:06.385Z,22.27
2023-03-11T09:15:48.459Z,22.45
2023-03-11T09:18:19.602Z,22.65
2023-03-11T09:21:03.946Z,22.84
2023-03-11T09:23:37.580Z,22.86
2023-03-11T09:26:11.043Z,23.28
2023-03-11T09:28:43.648Z,23.64
2023-03-11T09:31:21.559Z,24.34
2023-03-11T09:33:53.057Z,24.61
2023-03-11T09:36:21.684Z,24.52
2023-03-11T09:38:49.294Z,24.95
2023-03-11T09:41:57.088Z,24.78
2023-03-11T09:44:49.604Z,24.87
2023-03-11T09:47:45.505Z,24.57
2023-03-11T09:50:26.978Z,24.33
2023-03-11T09:53:02.943Z,23.61
2023-03-11T09:55:37.650Z,24.03
2023-03-11T09:58:50.812Z,23.67
2023-03-11T10:01:56.331Z,24.21
2023-03-11T10:04:42.390Z,24.12
2023-03-11T10:07:23.201Z,24.94
2023-03-11T10:10:15.585Z,25.24
2023-03-11T10:13:15.406Z,25.53
2023-03-11T10:16:17.046Z,25.01
2023-03-11T10:19:27.798Z,25.32
2023-03-11T10:22:13.946Z,25.58
2023-03-11T10:25:10.507Z,25.46
2023-03-11T10:30:52.717Z,25.24
2023-03-11T10:33:52.563Z,25.34
2023-03-11T10:36:48.908Z,25.80
2023-03-11T10:39:35.605Z,25.12
2023-03-11T10:42:11.054Z,25.38
2023-03-11T10:44:41.348Z,25.20
2023-03-11T10:47:22.785Z,25.59
2023-03-11T10:49:57.135Z,25.72
2023-03-11T10:52:26.508Z,26.33
2023-03-11T10:55:06.539Z,27.01
2023-03-11T10:57:40.004Z,27.46
2023-03-11T11:00:17.835Z,27.54
2023-03-11T11:02:54.162Z,28.10
2023-03-11T11:05:35.801Z,28.41
2023-03-11T11:08:18.730Z,28.31
2023-03-11T11:11:48.644Z,28.46
2023-03-11T11:14:18.358Z,28.54
2023-03-11T11:17:00.319Z,28.89
2023-03-11T11:19:34.877Z,28.92
2023-03-11T11:24:56.364Z,29.07
2023-03-11T11:27:31.992Z,29.69
2023-03-11T11:30:20.699Z,29.58
2023-03-11T11:33:02.515Z,29.57
2023-03-11T11:35:41.503Z,29.82
2023-03-11T11:38:14.829Z,29.93
2023-03-11T11:40:51.475Z,30.25
2023-03-11T11:43:47.661Z,30.43
2023-03-11T11:46:29.833Z,30.70
2023-03-11T11:49:08.070Z,30.97
2023-03-11T11:51:43.144Z,31.26
2023-03-11T11:54:46.093Z,30.77
2023-03-11T11:57:21.136Z,31.05
2023-03-11T12:00:13.082Z,30.75
2023-03-11T12:03:25.640Z,31.03
2023-03-11T12:06:10.460Z,30.96
2023-03-11T12:08:53.261Z,31.34
2023-03-11T12:11:54.698Z,31.41
2023-03-11T12:14:49.441Z,31.26
2023-03-11T12:17:21.771Z,30.70
2023-03-11T12:20:05.865Z,30.73
2023-03-11T12:23:17.131Z,30.97
2023-03-11T12:26:05.852Z,30.28
2023-03-11T12:29:31.755Z,30.05
2023-03-11T12:32:48.409Z,30.36
2023-03-11T12:35:29.704Z,31.18
2023-03-11T12:38:18.125Z,31.79
2023-03-11T12:41:37.325Z,31.77
2023-03-11T12:44:49.781Z,31.48
2023-03-11T12:47:37.221Z,31.31
2023-03-11T12:50:46.064Z,31.11
2023-03-11T12:53:41.602Z,30.68
2023-03-11T12:56:41.313Z,30.56
2023-03-11T12:59:49.046Z,30.17
2023-03-11T13:02:41.109Z,29.82
2023-03-11T13:05:41.712Z,30.01
2023-03-11T13:08:37.384Z,29.61
2023-03-11T13:11:42.609Z,29.71
2023-03-11T13:14:52.681Z,29.48
2023-03-11T13:17:38.613Z,29.72
2023-03-11T13:20:42.861Z,29.76
2023-03-11T13:23:19.663Z,29.55
2023-03-11T13:26:32.245Z,29.44
2023-03-11T13:29:40.030Z,29.23
2023-03-11T13:32:43.184Z,29.20
2023-03-11T13:35:42.693Z,29.02
2023-03-11T13:38:40.213Z,29.07
2023-03-11T13:41:22.529Z,29.43
2023-03-11T13:43:53.751Z,29.05
2023-03-11T13:46:55.654Z,29.22
2023-03-11T13:49:31.665Z,29.31
2023-03-11T13:52:34.258Z,29.04
2023-03-11T13:55:25.921Z,29.32
2023-03-11T13:58:02.829Z,29.49
2023-03-11T14:00:36.586Z,29.22
2023-03-11T14:03:21.925Z,28.95
2023-03-11T14:06:22.378Z,29.04
2023-03-11T14:09:05.681Z,28.92
2023-03-11T14:11:37.824Z,28.48
2023-03-11T14:14:40.486Z,28.17
2023-03-11T14:17:20.786Z,28.41
2023-03-11T14:20:07.622Z,28.68
2023-03-11T14:22:44.972Z,28.72
2023-03-11T14:25:45.517Z,28.72
2023-03-11T14:28:44.113Z,28.83
2023-03-11T14:31:57.506Z,28.85
2023-03-11T14:34:59.409Z,28.72
2023-03-11T14:37:44.253Z,28.91
2023-03-11T14:40:33.017Z,28.88
2023-03-11T14:43:47.921Z,28.81
2023-03-11T14:46:35.721Z,28.66
2023-03-11T14:49:11.884Z,28.78
2023-03-11T14:51:46.385Z,28.98
2023-03-11T14:54:28.107Z,29.34
2023-03-11T14:57:18.160Z,29.15
2023-03-11T14:59:53.040Z,29.25
2023-03-11T15:02:34.392Z,29.34
2023-03-11T15:05:08.443Z,29.60
2023-03-11T15:07:47.686Z,29.57
2023-03-11T15:10:25.281Z,29.53
2023-03-11T15:13:14.328Z,29.53
2023-03-11T15:18:44.808Z,29.85
2023-03-11T15:21:34.372Z,30.11
2023-03-11T15:24:10.485Z,29.96
2023-03-11T15:26:45.599Z,29.76
2023-03-11T15:29:19.704Z,30.13
2023-03-11T15:31:48.846Z,30.39
2023-03-11T15:34:25.690Z,30.43
2023-03-11T15:36:53.248Z,29.38
2023-03-11T15:39:25.519Z,29.85
2023-03-11T15:42:06.901Z,30.21
2023-03-11T15:44:49.087Z,30.01
2023-03-11T15:47:31.358Z,29.75
2023-03-11T15:49:58.678Z,29.76
2023-03-11T15:52:31.788Z,29.61
2023-03-11T15:54:59.168Z,30.02
2023-03-11T15:57:32.715Z,29.85
2023-03-11T16:00:04.594Z,29.89
2023-03-11T16:02:37.052Z,29.64
2023-03-11T16:05:17.325Z,29.60
2023-03-11T16:07:56.648Z,29.95
2023-03-11T16:10:34.235Z,29.84
2023-03-11T16:13:23.121Z,29.56
2023-03-11T16:15:53.434Z,29.25
2023-03-11T16:18:25.687Z,28.94
2023-03-11T16:21:09.940Z,28.62
2023-03-11T16:23:51.029Z,28.35
2023-03-11T16:26:33.034Z,27.93
2023-03-11T16:29:18.981Z,27.56
2023-03-11T16:31:51.973Z,26.96
2023-03-11T16:34:21.573Z,26.68
2023-03-11T16:36:48.970Z,26.62
2023-03-11T16:39:31.444Z,26.44
2023-03-11T16:42:02.812Z,25.93
2023-03-11T16:44:37.912Z,25.86
2023-03-11T16:47:10.702Z,25.81
2023-03-11T16:49:41.130Z,25.54
2023-03-11T16:52:08.943Z,25.46
2023-03-11T16:54:39.625Z,25.31
2023-03-11T16:57:10.002Z,25.28
2023-03-11T16:59:37.141Z,25.09
2023-03-11T17:02:07.569Z,25.15
2023-03-11T17:04:35.627Z,25.03
2023-03-11T17:07:03.328Z,25.06
2023-03-11T17:09:33.783Z,25.02
2023-03-11T17:12:16.908Z,24.91
2023-03-11T17:14:46.816Z,24.73
2023-03-11T17:17:15.028Z,24.68
2023-03-11T17:19:47.582Z,24.57
2023-03-11T17:22:32.746Z,24.39
2023-03-11T17:25:00.298Z,24.34
2023-03-11T17:27:33.297Z,24.18
2023-03-11T17:30:14.943Z,24.03
2023-03-11T17:32:47.872Z,24.34
2023-03-11T17:35:18.617Z,24.42
2023-03-11T17:37:51.899Z,24.05
2023-03-11T17:40:27.226Z,24.05
2023-03-11T17:43:04.243Z,23.99
2023-03-11T17:45:39.346Z,23.93
2023-03-11T17:48:09.817Z,23.85
2023-03-11T17:50:41.220Z,23.91
2023-03-11T17:53:13.385Z,23.89
2023-03-11T17:55:42.359Z,23.90
2023-03-11T17:58:09.873Z,23.64
2023-03-11T18:00:43.042Z,23.65
2023-03-11T18:03:10.182Z,23.59
2023-03-11T18:05:41.895Z,23.60
2023-03-11T18:08:09.632Z,23.51
2023-03-11T18:10:37.044Z,23.70
2023-03-11T18:13:09.350Z,23.58
2023-03-11T18:15:36.567Z,23.28
2023-03-11T18:18:03.731Z,23.42
2023-03-11T18:20:30.884Z,23.39
2023-03-11T18:22:57.950Z,23.36
2023-03-11T18:25:25.191Z,23.38
2023-03-11T18:27:57.750Z,23.49
2023-03-11T18:30:25.832Z,23.42
2023-03-11T18:32:53.075Z,23.14
2023-03-11T18:35:24.396Z,22.89
2023-03-11T18:37:53.133Z,23.13
2023-03-11T18:40:24.016Z,23.09
2023-03-11T18:42:54.666Z,22.81
2023-03-11T18:45:22.360Z,22.89
2023-03-11T18:47:51.979Z,23.04
2023-03-11T18:50:20.471Z,23.06
2023-03-11T18:52:50.515Z,23.04
2023-03-11T18:55:18.848Z,22.87
2023-03-11T18:57:47.193Z,22.95
2023-03-11T19:00:16.989Z,22.85
2023-03-11T19:02:44.319Z,22.84
2023-03-11T19:05:16.247Z,22.73
2023-03-11T19:07:46.552Z,22.90
2023-03-11T19:10:15.609Z,22.88
2023-03-11T19:12:45.219Z,22.86
2023-03-11T19:15:13.207Z,22.88
2023-03-11T19:17:41.105Z,22.90
2023-03-11T19:20:11.384Z,22.79
2023-03-11T19:22:49.491Z,22.69
2023-03-11T19:25:16.840Z,22.64
2023-03-11T19:27:48.906Z,22.72
2023-03-11T19:30:27.597Z,22.63
2023-03-11T19:33:02.793Z,22.66
2023-03-11T19:35:34.161Z,22.72
2023-03-11T19:38:10.389Z,22.72
2023-03-11T19:40:40.658Z,22.57
2023-03-11T19:43:07.875Z,22.73
2023-03-11T19:45:40.050Z,22.65
2023-03-11T19:48:07.604Z,22.66
2023-03-11T19:50:40.155Z,22.75
2023-03-11T19:53:13.420Z,22.71
2023-03-11T19:55:47.990Z,22.68
2023-03-11T19:58:15.245Z,22.67
2023-03-11T20:00:43.950Z,22.39
2023-03-11T20:03:13.089Z,22.54
2023-03-11T20:05:48.458Z,22.60
2023-03-11T20:08:35.905Z,22.69
2023-03-11T20:11:06.460Z,22.73
2023-03-11T20:13:42.721Z,22.76
2023-03-11T20:16:18.863Z,22.66
2023-03-11T20:18:55.244Z,22.71
2023-03-11T20:21:33.877Z,22.73
2023-03-11T20:24:03.654Z,22.68
2023-03-11T20:26:38.345Z,22.69
2023-03-11T20:29:17.240Z,22.64
2023-03-11T20:31:51.093Z,22.68
2023-03-11T20:34:22.308Z,22.58
2023-03-11T20:36:52.780Z,22.29
2023-03-11T20:39:32.492Z,22.55
2023-03-11T20:42:11.537Z,22.58
2023-03-11T20:44:44.892Z,22.58
2023-03-11T20:47:16.449Z,22.51
2023-03-11T20:49:46.418Z,22.55
2023-03-11T20:52:27.262Z,22.56
2023-03-11T20:54:57.389Z,22.51
2023-03-11T20:57:31.927Z,22.54
2023-03-11T21:00:14.368Z,22.49
2023-03-11T21:02:56.066Z,22.53
2023-03-11T21:05:36.729Z,22.54
2023-03-11T21:08:11.166Z,22.53
2023-03-11T21:10:46.143Z,22.52
2023-03-11T21:13:20.652Z,22.47
2023-03-11T21:16:09.851Z,22.48
2023-03-11T21:18:50.728Z,22.51
2023-03-11T21:21:27.238Z,22.53
2023-03-11T21:23:54.533Z,22.47
2023-03-11T21:29:06.919Z,22.51
2023-03-11T21:31:39.847Z,22.57
2023-03-11T21:34:07.242Z,22.48
2023-03-11T21:36:38.246Z,22.52
2023-03-11T21:39:25.378Z,22.48
2023-03-11T21:42:16.581Z,22.48
2023-03-11T21:44:51.734Z,22.46
2023-03-11T21:47:26.993Z,22.42
2023-03-11T21:49:56.850Z,22.45
2023-03-11T21:52:34.844Z,22.39
2023-03-11T21:55:07.133Z,22.45
2023-03-11T21:57:52.519Z,22.45
2023-03-11T22:00:25.177Z,22.42
2023-03-11T22:02:52.395Z,22.43
2023-03-11T22:05:19.611Z,22.41
2023-03-11T22:07:46.723Z,22.38
2023-03-11T22:10:14.072Z,22.41
2023-03-11T22:12:41.229Z,22.39
2023-03-11T22:15:09.268Z,22.40
2023-03-11T22:17:37.136Z,22.37
2023-03-11T22:20:06.203Z,22.37
2023-03-11T22:22:37.252Z,22.35
2023-03-11T22:25:05.465Z,22.34
2023-03-11T22:27:32.935Z,22.33
2023-03-11T22:30:00.404Z,22.33
2023-03-11T22:32:27.758Z,22.33
2023-03-11T22:34:54.848Z,22.27
2023-03-11T22:37:22.053Z,22.20
2023-03-11T22:39:49.147Z,22.21
2023-03-11T22:42:17.389Z,22.13
2023-03-11T22:44:44.422Z,22.18
2023-03-11T22:47:11.752Z,22.05
2023-03-11T22:49:39.077Z,22.06
2023-03-11T22:52:08.599Z,22.05
2023-03-11T22:54:37.675Z,22.03
2023-03-11T22:57:04.816Z,22.01
2023-03-11T22:59:32.116Z,21.98
2023-03-11T23:01:59.393Z,21.97
2023-03-11T23:04:26.682Z,21.93
2023-03-11T23:06:55.597Z,21.91
2023-03-11T23:09:23.142Z,21.88
2023-03-11T23:11:52.294Z,21.86
2023-03-11T23:14:23.722Z,21.82
2023-03-11T23:16:55.171Z,21.78
2023-03-11T23:19:22.411Z,21.80
2023-03-11T23:21:49.552Z,21.82
2023-03-11T23:24:16.619Z,21.88
2023-03-11T23:26:43.703Z,21.90
2023-03-11T23:29:10.751Z,21.88
2023-03-11T23:31:38.210Z,21.87
2023-03-11T23:34:06.838Z,21.84
2023-03-11T23:36:34.200Z,21.82
2023-03-11T23:39:01.370Z,21.77
2023-03-11T23:41:29.441Z,21.74
2023-03-11T23:43:56.889Z,21.75
2023-03-11T23:46:24.121Z,21.73
2023-03-11T23:48:51.397Z,21.72
2023-03-11T23:51:18.682Z,21.69
2023-03-11T23:53:46.140Z,21.68
2023-03-11T23:56:17.066Z,21.66
2023-03-11T23:58:44.562Z,21.63
